Clayton, Louisiana
Current Conditions -  °F | °C
As of 5:55 PM on Saturday 22 Nov 2014 (Local Time) from KHEZ Reporting Station
Broken Clouds Broken Clouds  
Wind Chill: 64°   Ceiling: 4500
Heat Index: 64°   Visibility: 10mi
Dew Point: 55°   Wind: 8mph
Humidity: 73%   Direction: 120°ESE
Pressure: 30"   Gusts: NA
Location:  31.72°N, 91.54°W
Report Text: KHEZ 222355Z AUTO 12007KT 10SM SCT028 BKN045 18/13 A3000 RMK AO1 10220 20180 402200110 57017
Loading
Personal Weather Stations






























Interactive Weather Map New forecast layout! Learn more

10-Day Weather Forecast

Advertisements
Track Severe Weather on mobile